Time;durP1;ratioP1;P1;durP2;ratioP2;P2;SDS_P1;SDS_P2;PMS_P1;PMS_P2;Temp;Humidity;BMP_temperature;BMP_pressure;BME280_temperature;BME280_humidity;BME280_pressure;Samples;Min_cycle;Max_cycle;Signal;HPM_P1;HPM_P2
2023/03/28 00:00:40;;;;;;;2.28;2.10;;;;;;;;;;5053555;28;20380;-87
2023/03/28 00:03:06;;;;;;;2.13;2.03;;;;;;;;;;5053493;28;20383;-87
2023/03/28 00:05:32;;;;;;;2.40;2.20;;;;;;;;;;5053025;28;20414;-86
2023/03/28 00:07:58;;;;;;;2.73;2.27;;;;;;;;;;5071112;28;20409;-86
2023/03/28 00:10:25;;;;;;;2.87;2.67;;;;;;;;;;5070939;28;20489;-86
2023/03/28 00:12:51;;;;;;;3.22;2.92;;;;;;;;;;5071062;28;20380;-86
2023/03/28 00:15:17;;;;;;;2.67;2.47;;;;;;;;;;5071183;28;20376;-86
2023/03/28 00:17:43;;;;;;;2.60;2.40;;;;;;;;;;5057176;28;20383;-87
2023/03/28 00:20:09;;;;;;;3.00;2.80;;;;;;;;;;5071110;28;20391;-86
2023/03/28 00:22:36;;;;;;;2.58;2.33;;;;;;;;;;5070850;28;20434;-87
2023/03/28 00:25:04;;;;;;;2.83;2.50;;;;;;;;;;5070504;28;20775;-87
2023/03/28 00:27:32;;;;;;;2.90;2.55;;;;;;;;;;5070704;28;20376;-86
2023/03/28 00:29:58;;;;;;;2.75;2.55;;;;;;;;;;5074844;28;20875;-86
2023/03/28 00:32:24;;;;;;;4.07;2.83;;;;;;;;;;5074835;28;20467;-86
2023/03/28 00:34:50;;;;;;;3.17;2.70;;;;;;;;;;5074867;28;20402;-86
2023/03/28 00:37:16;;;;;;;3.30;3.00;;;;;;;;;;5074626;28;20406;-86
2023/03/28 00:39:48;;;;;;;2.90;2.55;;;;;;;;;;5074715;28;20433;-87
2023/03/28 00:42:16;;;;;;;2.97;2.65;;;;;;;;;;5074843;28;20411;-86
2023/03/28 00:44:43;;;;;;;3.40;2.83;;;;;;;;;;5074670;28;20380;-85
2023/03/28 00:47:29;;;;;;;3.20;2.90;;;;;;;;;;5074624;28;20371;-85
2023/03/28 00:50:18;;;;;;;3.70;3.10;;;;;;;;;;5074498;28;20431;-86
2023/03/28 00:52:51;;;;;;;3.67;3.28;;;;;;;;;;5062606;28;20383;-86
2023/03/28 00:55:23;;;;;;;3.20;2.90;;;;;;;;;;5074574;28;20415;-87
2023/03/28 00:57:50;;;;;;;3.73;2.63;;;;;;;;;;5074537;28;20413;-87
2023/03/28 01:00:17;;;;;;;2.92;2.63;;;;;;;;;;5074279;28;20395;-86
2023/03/28 01:02:49;;;;;;;3.50;2.70;;;;;;;;;;5074578;28;20380;-86
2023/03/28 01:05:16;;;;;;;2.45;2.25;;;;;;;;;;5074256;28;20501;-86
2023/03/28 01:07:44;;;;;;;2.78;2.42;;;;;;;;;;5074295;28;20382;-87
2023/03/28 01:10:11;;;;;;;2.40;2.20;;;;;;;;;;5073639;28;20414;-86
2023/03/28 01:12:38;;;;;;;3.28;1.92;;;;;;;;;;5074205;28;20372;-87
2023/03/28 01:15:04;;;;;;;3.25;2.20;;;;;;;;;;5074095;28;20442;-87
2023/03/28 01:17:30;;;;;;;2.25;2.00;;;;;;;;;;5070617;28;20403;-87
2023/03/28 01:19:57;;;;;;;2.00;1.80;;;;;;;;;;5070548;28;20394;-86
2023/03/28 01:22:35;;;;;;;2.85;2.08;;;;;;;;;;5073921;28;20419;-86
2023/03/28 01:25:14;;;;;;;2.92;1.73;;;;;;;;;;5074085;28;20415;-86
2023/03/28 01:28:00;;;;;;;2.45;1.70;;;;;;;;;;5073888;28;20384;-86
2023/03/28 01:30:42;;;;;;;2.93;2.20;;;;;;;;;;5073853;28;20448;-87
2023/03/28 01:33:34;;;;;;;2.65;2.13;;;;;;;;;;5073952;28;20462;-86
2023/03/28 01:36:09;;;;;;;2.57;2.03;;;;;;;;;;5044085;28;20383;-86
2023/03/28 01:38:41;;;;;;;2.00;1.90;;;;;;;;;;5078541;28;20566;-85
2023/03/28 01:41:11;;;;;;;2.07;1.87;;;;;;;;;;5077287;28;20474;-86
2023/03/28 01:43:56;;;;;;;2.10;1.80;;;;;;;;;;5068209;28;20478;-86
2023/03/28 01:46:34;;;;;;;2.10;1.90;;;;;;;;;;5060823;28;20910;-87
2023/03/28 01:49:13;;;;;;;2.63;2.42;;;;;;;;;;5073904;28;20419;-86
2023/03/28 01:51:49;;;;;;;4.07;2.20;;;;;;;;;;5074315;28;20757;-86
2023/03/28 01:54:21;;;;;;;2.70;2.33;;;;;;;;;;5073840;28;20856;-86
2023/03/28 01:56:51;;;;;;;2.95;2.50;;;;;;;;;;5073488;28;20462;-86
2023/03/28 01:59:19;;;;;;;2.60;2.38;;;;;;;;;;5055530;28;20908;-86
2023/03/28 02:02:17;;;;;;;2.13;1.92;;;;;;;;;;5073305;28;20471;-86
2023/03/28 02:04:44;;;;;;;2.50;2.25;;;;;;;;;;5019867;28;20382;-86
2023/03/28 02:07:11;;;;;;;3.10;2.37;;;;;;;;;;5073345;28;20465;-86
2023/03/28 02:09:40;;;;;;;2.30;2.10;;;;;;;;;;5073314;28;20406;-87
2023/03/28 02:12:11;;;;;;;3.10;2.80;;;;;;;;;;5065437;28;20915;-86
2023/03/28 02:14:40;;;;;;;3.05;2.60;;;;;;;;;;5073250;28;20451;-86
2023/03/28 02:17:08;;;;;;;2.67;2.40;;;;;;;;;;5072911;28;20380;-86
2023/03/28 02:19:36;;;;;;;2.45;2.25;;;;;;;;;;5072717;28;20491;-86
2023/03/28 02:22:17;;;;;;;4.30;2.40;;;;;;;;;;5072951;28;20429;-86
2023/03/28 02:24:49;;;;;;;2.60;2.40;;;;;;;;;;5072940;28;20383;-86
2023/03/28 02:27:15;;;;;;;2.90;2.70;;;;;;;;;;5072877;28;20380;-86
2023/03/28 02:29:41;;;;;;;2.92;2.40;;;;;;;;;;5072901;28;20438;-86
2023/03/28 02:32:07;;;;;;;2.35;2.15;;;;;;;;;;5072728;28;20372;-86
2023/03/28 02:34:33;;;;;;;2.25;2.05;;;;;;;;;;5072512;28;20403;-88
2023/03/28 02:37:02;;;;;;;2.60;2.00;;;;;;;;;;5072441;28;20502;-87
2023/03/28 02:39:34;;;;;;;2.45;2.20;;;;;;;;;;5072739;28;20383;-87
2023/03/28 02:42:03;;;;;;;2.10;2.00;;;;;;;;;;5072655;28;20406;-86
2023/03/28 02:44:31;;;;;;;2.45;2.25;;;;;;;;;;5072695;28;20421;-87
2023/03/28 02:47:01;;;;;;;2.92;2.30;;;;;;;;;;5072325;28;20460;-87
2023/03/28 02:49:32;;;;;;;2.88;2.30;;;;;;;;;;5072225;28;20426;-87
2023/03/28 02:52:09;;;;;;;3.15;2.85;;;;;;;;;;5071925;28;20420;-86
2023/03/28 02:54:41;;;;;;;3.20;2.90;;;;;;;;;;5072214;28;20777;-86
2023/03/28 02:57:09;;;;;;;2.40;2.20;;;;;;;;;;5072147;28;20387;-86
2023/03/28 02:59:49;;;;;;;2.90;2.63;;;;;;;;;;5072216;28;20966;-86
2023/03/28 03:02:16;;;;;;;3.03;2.72;;;;;;;;;;5065233;28;20368;-87
2023/03/28 03:04:43;;;;;;;3.03;2.65;;;;;;;;;;5072060;28;20449;-87
2023/03/28 03:07:09;;;;;;;2.70;2.50;;;;;;;;;;5071948;28;20380;-87
2023/03/28 03:09:35;;;;;;;3.30;2.70;;;;;;;;;;5071629;28;20414;-86
2023/03/28 03:12:01;;;;;;;2.92;2.30;;;;;;;;;;5052170;28;20722;-87
2023/03/28 03:14:27;;;;;;;3.45;2.78;;;;;;;;;;5062100;28;20420;-86
2023/03/28 03:16:53;;;;;;;2.50;2.30;;;;;;;;;;5071607;28;20780;-87
2023/03/28 03:19:19;;;;;;;2.90;2.65;;;;;;;;;;5067635;28;20940;-86
2023/03/28 03:21:45;;;;;;;3.00;2.65;;;;;;;;;;5071658;28;20384;-86
2023/03/28 03:24:13;;;;;;;2.50;2.30;;;;;;;;;;5071752;28;20736;-88
2023/03/28 03:26:39;;;;;;;3.70;2.13;;;;;;;;;;5071753;28;20376;-86
2023/03/28 03:29:05;;;;;;;2.33;2.10;;;;;;;;;;5071529;28;20458;-86
2023/03/28 03:31:31;;;;;;;2.35;2.15;;;;;;;;;;5071581;28;20458;-86
2023/03/28 03:33:57;;;;;;;2.50;2.30;;;;;;;;;;5071399;28;20386;-87
2023/03/28 03:36:25;;;;;;;2.72;2.47;;;;;;;;;;5071523;28;20371;-87
2023/03/28 03:38:52;;;;;;;2.58;2.38;;;;;;;;;;5071507;28;20391;-87
2023/03/28 03:41:18;;;;;;;2.60;2.40;;;;;;;;;;5071537;28;20376;-86
2023/03/28 03:43:44;;;;;;;2.50;2.30;;;;;;;;;;5071660;28;20372;-86
2023/03/28 03:46:10;;;;;;;3.03;2.70;;;;;;;;;;5071182;28;20383;-87
2023/03/28 03:48:36;;;;;;;3.05;2.75;;;;;;;;;;5071317;28;20459;-87
2023/03/28 03:51:02;;;;;;;3.25;2.95;;;;;;;;;;5069671;28;20453;-86
2023/03/28 03:53:28;;;;;;;3.53;3.22;;;;;;;;;;5071208;28;20914;-87
2023/03/28 03:55:59;;;;;;;3.90;3.60;;;;;;;;;;5070847;28;20565;-87
2023/03/28 03:58:25;;;;;;;4.68;4.28;;;;;;;;;;5070970;28;20380;-86
2023/03/28 04:00:51;;;;;;;5.00;4.60;;;;;;;;;;5071231;28;20441;-87
2023/03/28 04:03:18;;;;;;;4.68;4.30;;;;;;;;;;5070231;28;20390;-87
2023/03/28 04:05:43;;;;;;;4.90;4.47;;;;;;;;;;5071155;28;20849;-87
2023/03/28 04:08:10;;;;;;;5.75;5.25;;;;;;;;;;5071178;28;20437;-86
2023/03/28 04:10:36;;;;;;;5.70;5.20;;;;;;;;;;5071112;28;20511;-87
2023/03/28 04:13:02;;;;;;;5.30;4.80;;;;;;;;;;5071216;28;20458;-87
2023/03/28 04:15:28;;;;;;;5.57;5.18;;;;;;;;;;5071122;28;20411;-86
2023/03/28 04:17:55;;;;;;;6.05;5.50;;;;;;;;;;5070793;28;20500;-87
2023/03/28 04:20:21;;;;;;;5.97;5.47;;;;;;;;;;5071019;28;20384;-87
2023/03/28 04:22:47;;;;;;;5.75;5.35;;;;;;;;;;5071065;28;20383;-86
2023/03/28 04:25:16;;;;;;;4.55;4.18;;;;;;;;;;5070915;28;20466;-86
2023/03/28 04:27:47;;;;;;;4.75;4.35;;;;;;;;;;5071056;28;20812;-86
2023/03/28 04:30:16;;;;;;;4.75;4.35;;;;;;;;;;5070902;28;20396;-86
2023/03/28 04:32:43;;;;;;;4.38;4.05;;;;;;;;;;5070897;28;20501;-87
2023/03/28 04:35:11;;;;;;;4.82;4.43;;;;;;;;;;5070626;28;20375;-87
2023/03/28 04:37:37;;;;;;;4.78;4.30;;;;;;;;;;5070066;28;20452;-87
2023/03/28 04:40:09;;;;;;;4.10;3.80;;;;;;;;;;5069823;28;20394;-87
2023/03/28 04:42:36;;;;;;;4.17;3.70;;;;;;;;;;5057255;28;20439;-86
2023/03/28 04:45:03;;;;;;;3.75;3.45;;;;;;;;;;5059381;28;20398;-86
2023/03/28 04:47:29;;;;;;;4.03;3.72;;;;;;;;;;5069254;28;20394;-86
2023/03/28 04:49:55;;;;;;;4.45;4.05;;;;;;;;;;5060523;28;20411;-86
2023/03/28 04:52:21;;;;;;;4.40;4.00;;;;;;;;;;5060611;28;20862;-86
2023/03/28 04:54:47;;;;;;;4.18;3.88;;;;;;;;;;5068061;28;20383;-86
2023/03/28 04:57:13;;;;;;;4.00;3.70;;;;;;;;;;5050595;28;20867;-85
2023/03/28 04:59:39;;;;;;;4.30;4.00;;;;;;;;;;5056057;28;20486;-86
2023/03/28 05:02:05;;;;;;;4.05;3.70;;;;;;;;;;5053408;28;20413;-86
2023/03/28 05:04:31;;;;;;;3.90;3.60;;;;;;;;;;5045266;28;20457;-85
2023/03/28 05:06:57;;;;;;;4.20;3.90;;;;;;;;;;5066411;28;20471;-85
2023/03/28 05:09:23;;;;;;;4.53;4.13;;;;;;;;;;5067043;28;20409;-86
2023/03/28 05:11:49;;;;;;;4.55;4.00;;;;;;;;;;5064099;28;20407;-86
2023/03/28 05:14:15;;;;;;;4.30;4.00;;;;;;;;;;5069821;28;20380;-85
2023/03/28 05:16:41;;;;;;;5.60;5.13;;;;;;;;;;5072660;28;20387;-86
2023/03/28 05:19:08;;;;;;;5.13;4.72;;;;;;;;;;5072688;28;20395;-87
2023/03/28 05:21:35;;;;;;;5.40;5.00;;;;;;;;;;5071277;28;20383;-86
2023/03/28 05:24:01;;;;;;;6.13;5.63;;;;;;;;;;5072512;28;20384;-86
2023/03/28 05:26:27;;;;;;;8.40;7.80;;;;;;;;;;5072449;28;20849;-86
2023/03/28 05:28:53;;;;;;;8.50;7.80;;;;;;;;;;5068203;28;20380;-87
2023/03/28 05:31:19;;;;;;;12.07;11.15;;;;;;;;;;5068512;28;21045;-87
2023/03/28 05:33:45;;;;;;;5.20;4.68;;;;;;;;;;5071928;28;20375;-86
2023/03/28 05:36:11;;;;;;;6.20;5.70;;;;;;;;;;5072231;28;20383;-85
2023/03/28 05:38:37;;;;;;;5.20;4.70;;;;;;;;;;5096608;22;1755583;-87
2023/03/28 05:41:04;;;;;;;5.03;4.63;;;;;;;;;;5032446;28;20398;-87
2023/03/28 05:43:30;;;;;;;5.03;4.63;;;;;;;;;;5033387;28;20878;-87
2023/03/28 05:45:56;;;;;;;5.05;4.65;;;;;;;;;;5022221;28;20388;-87
2023/03/28 05:48:22;;;;;;;5.37;4.97;;;;;;;;;;5029991;28;20466;-87
2023/03/28 05:50:49;;;;;;;5.60;5.20;;;;;;;;;;5028834;28;20509;-88
2023/03/28 05:53:16;;;;;;;5.78;5.28;;;;;;;;;;5035855;28;20383;-89
2023/03/28 05:55:42;;;;;;;5.50;5.00;;;;;;;;;;5033114;28;20379;-87
2023/03/28 05:58:08;;;;;;;5.40;5.00;;;;;;;;;;5033178;28;20414;-88
2023/03/28 06:00:34;;;;;;;5.72;5.13;;;;;;;;;;5031831;28;20959;-85
2023/03/28 06:03:00;;;;;;;5.47;5.07;;;;;;;;;;5033019;28;20461;-82
2023/03/28 06:05:27;;;;;;;5.60;5.10;;;;;;;;;;5032877;28;20901;-85
2023/03/28 06:07:52;;;;;;;5.43;4.95;;;;;;;;;;5033040;28;20375;-87
2023/03/28 06:10:19;;;;;;;5.53;5.03;;;;;;;;;;5014294;28;20782;-86
2023/03/28 06:12:45;;;;;;;6.00;5.40;;;;;;;;;;5022969;28;20388;-83
2023/03/28 06:15:11;;;;;;;5.40;5.00;;;;;;;;;;5032801;28;20387;-86
2023/03/28 06:17:37;;;;;;;5.07;4.68;;;;;;;;;;5032986;28;20863;-89
2023/03/28 06:20:05;;;;;;;5.82;5.32;;;;;;;;;;5029355;28;20375;-87
2023/03/28 06:22:31;;;;;;;6.00;5.40;;;;;;;;;;5031943;28;20460;-88
2023/03/28 06:24:57;;;;;;;6.32;5.13;;;;;;;;;;5031967;28;20450;-87
2023/03/28 06:27:23;;;;;;;5.25;4.75;;;;;;;;;;5031853;28;20485;-89
2023/03/28 06:29:49;;;;;;;5.57;5.00;;;;;;;;;;5032547;28;20979;-88
2023/03/28 06:32:17;;;;;;;5.10;4.53;;;;;;;;;;5032559;28;20741;-87
2023/03/28 06:34:43;;;;;;;4.80;4.47;;;;;;;;;;5032695;28;20379;-88
2023/03/28 06:37:08;;;;;;;4.60;4.20;;;;;;;;;;5032293;28;20375;-88
2023/03/28 06:39:35;;;;;;;5.10;4.70;;;;;;;;;;5032426;28;20495;-86
2023/03/28 06:42:02;;;;;;;5.07;4.57;;;;;;;;;;5032610;28;20490;-88
2023/03/28 06:44:28;;;;;;;4.77;4.37;;;;;;;;;;5031011;28;20382;-88
2023/03/28 06:46:54;;;;;;;5.17;4.67;;;;;;;;;;5032471;28;20417;-87
2023/03/28 06:49:20;;;;;;;4.70;4.30;;;;;;;;;;5032112;28;20390;-87
2023/03/28 06:51:46;;;;;;;5.17;4.70;;;;;;;;;;5032200;28;20402;-87
2023/03/28 06:54:12;;;;;;;5.03;4.63;;;;;;;;;;5032149;28;20458;-87
2023/03/28 06:56:38;;;;;;;4.57;4.18;;;;;;;;;;5032300;28;20398;-87
2023/03/28 06:59:04;;;;;;;5.00;4.50;;;;;;;;;;5031967;28;20923;-88
2023/03/28 07:01:30;;;;;;;5.55;5.05;;;;;;;;;;5032022;28;20395;-88
2023/03/28 07:03:58;;;;;;;5.20;4.70;;;;;;;;;;5032180;28;20390;-88
2023/03/28 07:06:25;;;;;;;4.80;4.30;;;;;;;;;;5031513;28;20468;-87
2023/03/28 07:08:51;;;;;;;4.85;4.45;;;;;;;;;;5031981;28;20479;-87
2023/03/28 07:11:17;;;;;;;6.13;5.00;;;;;;;;;;5031796;28;20907;-87
2023/03/28 07:13:43;;;;;;;5.03;4.20;;;;;;;;;;5031953;28;20375;-87
2023/03/28 07:16:13;;;;;;;4.55;4.10;;;;;;;;;;5031959;28;20761;-86
2023/03/28 07:18:40;;;;;;;5.00;4.60;;;;;;;;;;5016329;28;20396;-87
2023/03/28 07:21:14;;;;;;;4.80;4.40;;;;;;;;;;5031356;28;20391;-88
2023/03/28 07:23:40;;;;;;;5.57;4.68;;;;;;;;;;5031869;28;20386;-87
2023/03/28 07:26:07;;;;;;;6.07;5.50;;;;;;;;;;5031660;28;20663;-87
2023/03/28 07:28:33;;;;;;;7.50;6.80;;;;;;;;;;5031375;28;20388;-84
2023/03/28 07:31:01;;;;;;;11.33;7.23;;;;;;;;;;5031665;28;20438;-90
2023/03/28 07:33:27;;;;;;;15.35;11.07;;;;;;;;;;5031753;28;20386;-89
2023/03/28 07:35:53;;;;;;;20.52;13.48;;;;;;;;;;5031691;28;20399;-89
2023/03/28 07:38:19;;;;;;;10.83;9.50;;;;;;;;;;5031168;28;20551;-90
2023/03/28 07:40:45;;;;;;;8.50;7.40;;;;;;;;;;5031381;28;20533;-90
2023/03/28 07:43:11;;;;;;;9.35;8.20;;;;;;;;;;5031471;28;20395;-86
2023/03/28 07:45:37;;;;;;;8.07;7.00;;;;;;;;;;5031295;28;20394;-88
2023/03/28 07:48:04;;;;;;;9.35;8.20;;;;;;;;;;5030977;28;20403;-90
2023/03/28 07:50:30;;;;;;;19.58;13.98;;;;;;;;;;5031207;28;20406;-89
2023/03/28 07:52:59;;;;;;;17.47;11.57;;;;;;;;;;5031290;28;20379;-88
2023/03/28 07:55:26;;;;;;;12.25;10.00;;;;;;;;;;5031330;28;20824;-88
2023/03/28 07:57:52;;;;;;;12.48;9.90;;;;;;;;;;5031192;28;20383;-87
2023/03/28 08:00:21;;;;;;;10.68;8.68;;;;;;;;;;5031196;28;20391;-91
2023/03/28 08:02:47;;;;;;;17.60;12.52;;;;;;;;;;5031188;28;20907;-90
2023/03/28 08:05:13;;;;;;;17.40;12.57;;;;;;;;;;5031388;28;20397;-89
2023/03/28 08:07:44;;;;;;;13.32;10.75;;;;;;;;;;5031138;28;20470;-90
2023/03/28 08:10:11;;;;;;;12.23;9.77;;;;;;;;;;5031063;28;20446;-87
2023/03/28 08:12:37;;;;;;;12.93;11.27;;;;;;;;;;5031205;28;20524;-88
2023/03/28 08:15:03;;;;;;;12.60;9.98;;;;;;;;;;5030865;28;20383;-87
2023/03/28 08:17:29;;;;;;;9.90;8.80;;;;;;;;;;5031036;28;20789;-88
2023/03/28 08:19:55;;;;;;;7.55;6.75;;;;;;;;;;5030813;28;20466;-90
2023/03/28 08:22:21;;;;;;;7.13;5.43;;;;;;;;;;5031050;28;20437;-88
2023/03/28 08:24:47;;;;;;;6.10;5.50;;;;;;;;;;5028290;28;20386;-89
2023/03/28 08:27:13;;;;;;;6.53;6.03;;;;;;;;;;5030948;28;20864;-88
2023/03/28 08:29:39;;;;;;;8.05;7.03;;;;;;;;;;5030856;28;20764;-89
2023/03/28 08:32:06;;;;;;;5.82;5.32;;;;;;;;;;5030826;28;20375;-89
2023/03/28 08:34:32;;;;;;;6.88;5.97;;;;;;;;;;5030735;28;20375;-87
2023/03/28 08:37:02;;;;;;;6.37;5.77;;;;;;;;;;5030844;28;20470;-86
2023/03/28 08:39:28;;;;;;;7.07;4.78;;;;;;;;;;5030438;28;20489;-87
2023/03/28 08:42:13;;;;;;;5.40;4.77;;;;;;;;;;5031174;28;20394;-85
2023/03/28 08:44:45;;;;;;;6.35;4.50;;;;;;;;;;5050648;28;20433;-87
2023/03/28 08:47:16;;;;;;;5.05;4.60;;;;;;;;;;5050530;28;20393;-86
2023/03/28 08:49:45;;;;;;;5.40;4.90;;;;;;;;;;5052127;28;20954;-87
2023/03/28 08:52:13;;;;;;;5.03;4.53;;;;;;;;;;5054777;28;20720;-87
2023/03/28 08:54:43;;;;;;;5.10;4.50;;;;;;;;;;5054588;28;20439;-88
2023/03/28 08:57:13;;;;;;;5.63;4.55;;;;;;;;;;5054367;28;20524;-88
2023/03/28 08:59:58;;;;;;;4.53;4.10;;;;;;;;;;5054430;28;20380;-87
2023/03/28 09:02:28;;;;;;;3.90;3.50;;;;;;;;;;5054238;28;20423;-88
2023/03/28 09:04:56;;;;;;;3.25;2.80;;;;;;;;;;5054708;28;20382;-87
2023/03/28 09:07:35;;;;;;;3.50;3.00;;;;;;;;;;5054258;28;20397;-86
2023/03/28 09:10:02;;;;;;;3.92;3.05;;;;;;;;;;5054098;28;20412;-86
2023/03/28 09:12:41;;;;;;;3.40;2.90;;;;;;;;;;5054024;28;20712;-87
2023/03/28 09:15:13;;;;;;;3.70;2.90;;;;;;;;;;5054125;28;20369;-86
2023/03/28 09:17:49;;;;;;;3.78;2.90;;;;;;;;;;5053777;28;20396;-86
2023/03/28 09:20:24;;;;;;;4.18;2.83;;;;;;;;;;5048530;28;20388;-86
2023/03/28 09:23:02;;;;;;;3.30;2.50;;;;;;;;;;5053895;28;20439;-85
2023/03/28 09:25:32;;;;;;;3.00;2.70;;;;;;;;;;5044525;28;20400;-88
2023/03/28 09:28:13;;;;;;;3.90;2.63;;;;;;;;;;5053865;28;20859;-86
2023/03/28 09:30:43;;;;;;;2.83;1.40;;;;;;;;;;5041168;28;20835;-86
2023/03/28 09:33:15;;;;;;;1.65;1.00;;;;;;;;;;5053875;28;20476;-86
2023/03/28 09:35:41;;;;;;;3.35;2.00;;;;;;;;;;5040547;28;20381;-87
2023/03/28 09:38:16;;;;;;;2.38;2.17;;;;;;;;;;5053804;28;20469;-86
2023/03/28 09:40:45;;;;;;;4.93;2.30;;;;;;;;;;5033871;28;20403;-87
2023/03/28 09:43:11;;;;;;;2.78;2.10;;;;;;;;;;5034013;28;20745;-87
2023/03/28 09:45:46;;;;;;;3.03;2.22;;;;;;;;;;5033592;28;20387;-86
2023/03/28 09:48:17;;;;;;;2.55;2.30;;;;;;;;;;5033606;28;20379;-88
2023/03/28 09:50:43;;;;;;;2.22;2.00;;;;;;;;;;5033492;28;20407;-88
2023/03/28 09:53:14;;;;;;;3.17;2.38;;;;;;;;;;5033433;28;20871;-91
2023/03/28 09:55:40;;;;;;;2.38;1.75;;;;;;;;;;4999433;28;20383;-89
2023/03/28 09:58:08;;;;;;;3.97;2.78;;;;;;;;;;5033696;28;20527;-89
2023/03/28 10:00:35;;;;;;;2.30;1.88;;;;;;;;;;5032137;28;20402;-92
2023/03/28 10:03:01;;;;;;;2.63;1.80;;;;;;;;;;5033728;28;20402;-92
2023/03/28 10:05:30;;;;;;;2.85;2.00;;;;;;;;;;5034163;28;20438;-92
2023/03/28 10:07:57;;;;;;;2.65;2.00;;;;;;;;;;5021419;28;20855;-91
2023/03/28 10:10:24;;;;;;;2.72;1.90;;;;;;;;;;5034400;28;20914;-93
2023/03/28 10:12:55;;;;;;;3.00;1.83;;;;;;;;;;5034687;28;20802;-93
2023/03/28 10:15:38;;;;;;;2.00;1.80;;;;;;;;;;5033394;28;20461;-91
2023/03/28 10:18:04;;;;;;;2.60;1.80;;;;;;;;;;5032652;28;20934;-91
2023/03/28 10:20:34;;;;;;;4.78;2.33;;;;;;;;;;5033265;28;20387;-91
2023/03/28 10:23:00;;;;;;;3.03;2.22;;;;;;;;;;5033089;28;20423;-90
2023/03/28 10:25:41;;;;;;;3.13;2.80;;;;;;;;;;5030085;28;20394;-92
2023/03/28 10:28:08;;;;;;;2.63;2.00;;;;;;;;;;5031220;28;20473;-90
2023/03/28 10:30:35;;;;;;;2.58;1.90;;;;;;;;;;5033221;28;20931;-90
2023/03/28 10:33:10;;;;;;;3.03;1.97;;;;;;;;;;5033053;28;20379;-91
2023/03/28 10:35:40;;;;;;;3.30;2.47;;;;;;;;;;5032769;28;20371;-94
2023/03/28 10:38:14;;;;;;;4.57;2.70;;;;;;;;;;5036535;28;20463;-90
2023/03/28 10:40:40;;;;;;;5.13;3.67;;;;;;;;;;5032522;28;20387;-90
2023/03/28 10:43:11;;;;;;;5.85;3.15;;;;;;;;;;5032527;28;20466;-91
2023/03/28 10:45:39;;;;;;;3.45;2.50;;;;;;;;;;5032327;28;20379;-91
2023/03/28 10:48:27;;;;;;;4.80;2.75;;;;;;;;;;5032464;28;20379;-88
2023/03/28 10:50:54;;;;;;;2.50;2.20;;;;;;;;;;5032096;28;20414;-88
2023/03/28 10:53:39;;;;;;;2.17;1.55;;;;;;;;;;5045690;28;20472;-88
2023/03/28 10:56:24;;;;;;;1.67;1.35;;;;;;;;;;5030374;28;20445;-88
2023/03/28 10:58:50;;;;;;;2.67;1.60;;;;;;;;;;5032130;28;20376;-90
2023/03/28 11:01:20;;;;;;;2.85;1.70;;;;;;;;;;5032210;28;20445;-89
2023/03/28 11:03:55;;;;;;;2.25;1.90;;;;;;;;;;5032266;28;20383;-88
2023/03/28 11:06:40;;;;;;;2.58;1.70;;;;;;;;;;5032291;28;20453;-87
2023/03/28 11:09:16;;;;;;;2.15;1.60;;;;;;;;;;5031904;28;20379;-90
2023/03/28 11:11:54;;;;;;;4.90;2.75;;;;;;;;;;5031385;28;20403;-89
2023/03/28 11:14:23;;;;;;;6.25;3.78;;;;;;;;;;5031516;28;20478;-88
2023/03/28 11:17:08;;;;;;;2.53;2.13;;;;;;;;;;5032034;28;20461;-87
2023/03/28 11:19:34;;;;;;;2.72;1.98;;;;;;;;;;5031726;28;20379;-90
2023/03/28 11:22:17;;;;;;;3.33;2.40;;;;;;;;;;5029649;28;20905;-91
2023/03/28 11:24:56;;;;;;;4.60;2.45;;;;;;;;;;5032187;28;20849;-89
2023/03/28 11:27:34;;;;;;;3.53;2.28;;;;;;;;;;5031437;28;20389;-88
2023/03/28 11:30:04;;;;;;;2.85;2.10;;;;;;;;;;5031132;28;20434;-89
2023/03/28 11:32:37;;;;;;;2.67;2.07;;;;;;;;;;5031617;28;20379;-89
2023/03/28 11:35:22;;;;;;;2.92;2.08;;;;;;;;;;5031862;28;20379;-88
2023/03/28 11:37:50;;;;;;;3.28;1.95;;;;;;;;;;5026709;28;20736;-89
2023/03/28 11:40:35;;;;;;;2.67;2.15;;;;;;;;;;5059338;23;20468;-83
2023/03/28 11:43:03;;;;;;;2.40;2.05;;;;;;;;;;5051400;28;20384;-84
2023/03/28 11:45:46;;;;;;;2.35;1.92;;;;;;;;;;5033107;28;20382;-83
2023/03/28 11:48:17;;;;;;;2.80;1.85;;;;;;;;;;5031716;28;20460;-86
2023/03/28 11:50:52;;;;;;;2.00;1.70;;;;;;;;;;5023750;28;20808;-87
2023/03/28 11:53:24;;;;;;;2.35;1.90;;;;;;;;;;5031268;28;20371;-85
2023/03/28 11:55:52;;;;;;;4.22;2.08;;;;;;;;;;5025994;28;20371;-86
2023/03/28 11:58:23;;;;;;;1.83;1.73;;;;;;;;;;5038195;28;20402;-85
2023/03/28 12:00:56;;;;;;;3.07;2.00;;;;;;;;;;5035045;28;20546;-86
2023/03/28 12:03:37;;;;;;;2.53;1.83;;;;;;;;;;5040882;28;20462;-85
2023/03/28 12:06:06;;;;;;;2.25;1.80;;;;;;;;;;5041717;28;20391;-85
2023/03/28 12:08:34;;;;;;;2.40;1.83;;;;;;;;;;5036459;28;20880;-85
2023/03/28 12:11:05;;;;;;;2.55;1.80;;;;;;;;;;5033384;28;20505;-86
2023/03/28 12:13:37;;;;;;;3.33;2.03;;;;;;;;;;5032209;28;20419;-85
2023/03/28 12:16:23;;;;;;;4.40;3.50;;;;;;;;;;5031949;28;20391;-86
2023/03/28 12:18:51;;;;;;;4.57;2.60;;;;;;;;;;5024246;28;20740;-86
2023/03/28 12:21:21;;;;;;;3.22;2.17;;;;;;;;;;5031333;28;20840;-85
2023/03/28 12:24:07;;;;;;;3.40;2.00;;;;;;;;;;5031645;28;20371;-85
2023/03/28 12:26:56;;;;;;;2.22;2.03;;;;;;;;;;5031390;28;20470;-85
2023/03/28 12:29:32;;;;;;;2.30;1.80;;;;;;;;;;5018827;28;20449;-87
2023/03/28 12:32:04;;;;;;;2.40;1.90;;;;;;;;;;5035377;28;20748;-83
2023/03/28 12:35:04;;;;;;;2.38;2.00;;;;;;;;;;5035378;28;20860;-85
2023/03/28 12:37:34;;;;;;;6.13;5.30;;;;;;;;;;5002634;28;20391;-86
2023/03/28 12:40:12;;;;;;;2.78;1.90;;;;;;;;;;5034775;28;20741;-87
2023/03/28 12:42:42;;;;;;;2.40;1.70;;;;;;;;;;5035358;28;20751;-84
2023/03/28 12:45:13;;;;;;;2.60;2.00;;;;;;;;;;5035058;28;20383;-85
2023/03/28 12:47:41;;;;;;;2.00;1.80;;;;;;;;;;5035213;28;20383;-85
2023/03/28 12:50:14;;;;;;;2.92;1.90;;;;;;;;;;5034832;28;20445;-85
2023/03/28 12:52:44;;;;;;;3.03;2.10;;;;;;;;;;5021750;28;20421;-86
2023/03/28 12:55:39;;;;;;;2.03;1.70;;;;;;;;;;5034829;28;20379;-86
2023/03/28 12:58:31;;;;;;;2.33;1.90;;;;;;;;;;5018254;28;20742;-85
2023/03/28 13:01:06;;;;;;;2.65;1.95;;;;;;;;;;5031440;28;20402;-86
2023/03/28 13:03:35;;;;;;;2.23;2.03;;;;;;;;;;5034963;28;20425;-85
2023/03/28 13:06:07;;;;;;;2.15;1.95;;;;;;;;;;5031070;28;20395;-87
2023/03/28 13:08:52;;;;;;;3.15;2.35;;;;;;;;;;5031212;28;20391;-84
2023/03/28 13:11:24;;;;;;;2.58;2.25;;;;;;;;;;5034185;28;20399;-84
2023/03/28 13:14:08;;;;;;;3.00;2.78;;;;;;;;;;5034461;28;21060;-85
2023/03/28 13:16:52;;;;;;;4.35;3.22;;;;;;;;;;5034285;28;20706;-84
2023/03/28 13:19:20;;;;;;;3.17;2.60;;;;;;;;;;5032849;28;20535;-84
2023/03/28 13:21:49;;;;;;;2.60;2.40;;;;;;;;;;5034339;28;20379;-85
2023/03/28 13:24:24;;;;;;;2.45;1.98;;;;;;;;;;5034319;28;20426;-84
2023/03/28 13:26:57;;;;;;;2.80;2.40;;;;;;;;;;5016428;28;20387;-85
2023/03/28 13:29:40;;;;;;;2.73;2.30;;;;;;;;;;5034145;28;20387;-84
2023/03/28 13:32:11;;;;;;;2.60;2.22;;;;;;;;;;5034195;28;20395;-84
2023/03/28 13:34:37;;;;;;;3.33;2.30;;;;;;;;;;5033808;28;20883;-84
2023/03/28 13:37:17;;;;;;;2.70;2.40;;;;;;;;;;5033952;28;20860;-84
2023/03/28 13:39:49;;;;;;;3.10;2.40;;;;;;;;;;5033601;28;20404;-84
2023/03/28 13:42:25;;;;;;;2.65;2.40;;;;;;;;;;5021984;28;20375;-84
2023/03/28 13:44:54;;;;;;;3.92;2.60;;;;;;;;;;5033691;28;20394;-84
2023/03/28 13:47:26;;;;;;;2.85;2.30;;;;;;;;;;5033797;28;20387;-84
2023/03/28 13:50:00;;;;;;;2.33;2.13;;;;;;;;;;5033552;28;20776;-84
2023/03/28 13:52:26;;;;;;;4.47;2.50;;;;;;;;;;5021429;28;20379;-84
2023/03/28 13:55:00;;;;;;;2.30;2.10;;;;;;;;;;5031821;28;20398;-84
2023/03/28 13:57:26;;;;;;;2.95;2.38;;;;;;;;;;5032570;28;20420;-84
2023/03/28 14:00:00;;;;;;;3.60;2.80;;;;;;;;;;5032390;28;20897;-84
2023/03/28 14:02:29;;;;;;;3.60;2.65;;;;;;;;;;5030028;28;20382;-83
2023/03/28 14:04:56;;;;;;;2.40;2.20;;;;;;;;;;5031067;28;20462;-84
2023/03/28 14:07:23;;;;;;;3.07;2.60;;;;;;;;;;5032818;28;20864;-84
2023/03/28 14:09:50;;;;;;;3.50;2.33;;;;;;;;;;5028669;28;20464;-84
2023/03/28 14:12:17;;;;;;;2.63;2.37;;;;;;;;;;5032331;28;20417;-84
2023/03/28 14:15:09;;;;;;;2.42;2.22;;;;;;;;;;5033165;28;20379;-83
2023/03/28 14:17:35;;;;;;;2.85;2.60;;;;;;;;;;5029715;28;20470;-84
2023/03/28 14:20:07;;;;;;;3.13;2.43;;;;;;;;;;5030855;28;20881;-84
2023/03/28 14:22:36;;;;;;;3.05;2.40;;;;;;;;;;5032038;28;20853;-84
2023/03/28 14:25:04;;;;;;;2.78;2.55;;;;;;;;;;5032915;28;20414;-84
2023/03/28 14:27:44;;;;;;;2.70;2.50;;;;;;;;;;5029360;28;20394;-84
2023/03/28 14:30:18;;;;;;;2.60;2.40;;;;;;;;;;5029395;28;20426;-82
2023/03/28 14:32:53;;;;;;;2.75;2.53;;;;;;;;;;5032709;28;20375;-84
2023/03/28 14:35:20;;;;;;;2.50;2.30;;;;;;;;;;5028766;28;20410;-83
2023/03/28 14:37:50;;;;;;;2.97;2.22;;;;;;;;;;5032111;28;20375;-83
2023/03/28 14:40:22;;;;;;;2.85;2.53;;;;;;;;;;5038672;28;20447;-83
2023/03/28 14:42:49;;;;;;;2.47;2.20;;;;;;;;;;5032706;28;20399;-83
2023/03/28 14:45:15;;;;;;;3.30;3.00;;;;;;;;;;5032610;28;20379;-83
2023/03/28 14:47:41;;;;;;;2.65;2.20;;;;;;;;;;5031613;28;20853;-83
2023/03/28 14:50:13;;;;;;;3.05;2.75;;;;;;;;;;5031991;28;20454;-84
2023/03/28 14:52:40;;;;;;;3.10;2.40;;;;;;;;;;5023742;28;20386;-85
2023/03/28 14:55:07;;;;;;;2.90;2.63;;;;;;;;;;5032603;28;20383;-83
2023/03/28 14:57:33;;;;;;;3.00;2.63;;;;;;;;;;5032023;28;20423;-84
2023/03/28 15:00:00;;;;;;;3.10;2.45;;;;;;;;;;5032143;28;20390;-84